createdAt,value
2022-12-18T00:01:25.718Z,27.75
2022-12-18T00:03:54.663Z,16.08
2022-12-18T00:06:23.355Z,25.60
2022-12-18T00:08:51.932Z,15.45
2022-12-18T00:11:21.647Z,17.35
2022-12-18T00:13:51.328Z,15.00
2022-12-18T00:16:21.911Z,16.98
2022-12-18T00:18:52.227Z,21.13
2022-12-18T00:21:21.624Z,17.40
2022-12-18T00:23:50.707Z,14.90
2022-12-18T00:26:20.982Z,19.38
2022-12-18T00:28:49.347Z,19.23
2022-12-18T00:31:20.684Z,22.25
2022-12-18T00:33:49.076Z,19.00
2022-12-18T00:36:25.286Z,19.08
2022-12-18T00:38:53.483Z,14.05
2022-12-18T00:41:35.536Z,14.13
2022-12-18T00:44:03.443Z,13.93
2022-12-18T00:46:31.292Z,22.85
2022-12-18T00:48:59.067Z,20.83
2022-12-18T00:51:28.599Z,24.65
2022-12-18T00:53:56.517Z,13.95
2022-12-18T00:56:24.639Z,18.50
2022-12-18T00:58:52.904Z,20.63
2022-12-18T01:01:21.607Z,15.95
2022-12-18T01:03:49.573Z,14.75
2022-12-18T01:06:18.848Z,15.27
2022-12-18T01:08:48.054Z,21.02
2022-12-18T01:11:19.044Z,18.77
2022-12-18T01:13:46.932Z,14.68
2022-12-18T01:16:15.728Z,20.77
2022-12-18T01:18:43.775Z,18.15
2022-12-18T01:21:13.306Z,16.63
2022-12-18T01:23:41.596Z,23.42
2022-12-18T01:26:13.243Z,11.10
2022-12-18T01:28:41.809Z,18.55
2022-12-18T01:31:15.303Z,18.38
2022-12-18T01:36:16.159Z,17.55
2022-12-18T01:38:44.047Z,16.17
2022-12-18T01:41:13.823Z,12.25
2022-12-18T01:43:50.608Z,16.38
2022-12-18T01:46:20.218Z,17.88
2022-12-18T01:48:52.392Z,26.75
2022-12-18T01:51:20.551Z,19.75
2022-12-18T01:53:49.751Z,23.27
2022-12-18T01:56:20.883Z,15.68
2022-12-18T01:58:56.223Z,17.23
2022-12-18T02:01:25.038Z,16.50
2022-12-18T02:03:53.640Z,23.55
2022-12-18T02:06:27.966Z,15.25
2022-12-18T02:09:05.986Z,26.77
2022-12-18T02:11:44.499Z,18.45
2022-12-18T02:14:21.204Z,22.85
2022-12-18T02:16:55.669Z,18.40
2022-12-18T02:19:41.780Z,20.85
2022-12-18T02:22:23.272Z,26.30
2022-12-18T02:25:01.903Z,17.98
2022-12-18T02:27:34.016Z,17.10
2022-12-18T02:30:03.552Z,15.25
2022-12-18T02:32:36.064Z,17.65
2022-12-18T02:35:06.940Z,18.02
2022-12-18T02:37:36.737Z,14.15
2022-12-18T02:40:07.093Z,23.85
2022-12-18T02:42:36.256Z,20.50
2022-12-18T02:45:04.116Z,18.17
2022-12-18T02:47:34.728Z,15.73
2022-12-18T02:50:12.725Z,15.75
2022-12-18T02:52:48.020Z,17.08
2022-12-18T02:55:27.584Z,21.95
2022-12-18T02:58:00.588Z,19.02
2022-12-18T03:00:36.077Z,21.52
2022-12-18T03:03:09.978Z,15.75
2022-12-18T03:05:43.583Z,22.15
2022-12-18T03:08:16.416Z,17.08
2022-12-18T03:10:50.572Z,20.27
2022-12-18T03:13:25.668Z,12.50
2022-12-18T03:15:56.977Z,17.35
2022-12-18T03:18:28.083Z,16.23
2022-12-18T03:21:00.508Z,19.35
2022-12-18T03:23:34.389Z,18.25
2022-12-18T03:26:07.730Z,17.33
2022-12-18T03:28:40.997Z,20.13
2022-12-18T03:31:11.872Z,22.20
2022-12-18T03:33:46.282Z,17.33
2022-12-18T03:36:14.236Z,16.58
2022-12-18T03:38:42.019Z,29.23
2022-12-18T03:41:18.020Z,19.58
2022-12-18T03:43:54.224Z,17.65
2022-12-18T03:46:29.944Z,18.95
2022-12-18T03:49:03.647Z,16.38
2022-12-18T03:54:07.591Z,17.75
2022-12-18T03:56:39.892Z,13.82
2022-12-18T03:59:12.196Z,18.70
2022-12-18T04:01:43.921Z,13.80
2022-12-18T04:04:13.961Z,16.85
2022-12-18T04:06:43.203Z,23.52
2022-12-18T04:09:11.770Z,18.90
2022-12-18T04:11:39.506Z,19.90
2022-12-18T04:14:07.708Z,21.63
2022-12-18T04:16:36.878Z,19.98
2022-12-18T04:19:05.306Z,13.38
2022-12-18T04:21:33.111Z,15.88
2022-12-18T04:24:00.910Z,16.38
2022-12-18T04:26:28.647Z,13.63
2022-12-18T04:28:56.509Z,11.52
2022-12-18T04:31:24.320Z,24.65
2022-12-18T04:33:53.703Z,17.65
2022-12-18T04:36:21.534Z,18.40
2022-12-18T04:38:49.350Z,20.65
2022-12-18T04:41:17.144Z,23.70
2022-12-18T04:43:44.894Z,21.35
2022-12-18T04:46:12.777Z,18.75
2022-12-18T04:48:40.639Z,14.07
2022-12-18T04:51:09.870Z,17.25
2022-12-18T04:53:37.848Z,17.20
2022-12-18T04:56:08.127Z,17.67
2022-12-18T04:58:35.911Z,25.50
2022-12-18T05:01:04.284Z,16.33
2022-12-18T05:03:32.513Z,16.48
2022-12-18T05:06:00.276Z,18.17
2022-12-18T05:08:29.607Z,17.08
2022-12-18T05:11:01.751Z,14.80
2022-12-18T05:13:29.853Z,15.75
2022-12-18T05:15:58.057Z,17.20
2022-12-18T05:18:26.265Z,23.83
2022-12-18T05:20:54.969Z,18.63
2022-12-18T05:23:24.921Z,15.73
2022-12-18T05:25:55.577Z,21.00
2022-12-18T05:28:24.678Z,16.65
2022-12-18T05:30:52.936Z,23.90
2022-12-18T05:33:20.824Z,14.98
2022-12-18T05:35:53.089Z,14.73
2022-12-18T05:38:21.159Z,14.15
2022-12-18T05:40:49.974Z,17.02
2022-12-18T05:43:21.512Z,14.93
2022-12-18T05:45:50.448Z,16.35
2022-12-18T05:48:18.723Z,15.20
2022-12-18T05:50:47.966Z,15.52
2022-12-18T05:53:17.167Z,19.63
2022-12-18T05:55:45.908Z,17.55
2022-12-18T05:58:15.278Z,16.90
2022-12-18T06:00:46.985Z,15.27
2022-12-18T06:03:15.978Z,17.02
2022-12-18T06:05:45.401Z,14.85
2022-12-18T06:08:14.129Z,15.25
2022-12-18T06:10:42.863Z,18.83
2022-12-18T06:13:10.671Z,21.15
2022-12-18T06:15:38.913Z,16.58
2022-12-18T06:18:08.086Z,19.70
2022-12-18T06:20:37.563Z,15.05
2022-12-18T06:23:05.780Z,18.27
2022-12-18T06:25:33.907Z,19.30
2022-12-18T06:28:01.779Z,18.20
2022-12-18T06:30:29.604Z,14.68
2022-12-18T06:32:57.671Z,15.73
2022-12-18T06:35:26.800Z,17.52
2022-12-18T06:37:54.627Z,16.88
2022-12-18T06:40:22.988Z,20.23
2022-12-18T06:42:51.929Z,16.73
2022-12-18T06:45:19.776Z,14.60
2022-12-18T06:47:47.703Z,16.55
2022-12-18T06:50:15.810Z,17.13
2022-12-18T06:52:45.071Z,12.63
2022-12-18T06:55:13.467Z,18.48
2022-12-18T06:57:41.264Z,18.52
2022-12-18T07:00:10.164Z,13.02
2022-12-18T07:02:38.079Z,12.32
2022-12-18T07:05:10.684Z,16.42
2022-12-18T07:07:39.050Z,11.85
2022-12-18T07:10:08.789Z,13.43
2022-12-18T07:12:36.692Z,15.60
2022-12-18T07:15:05.031Z,9.23
2022-12-18T07:17:32.753Z,18.63
2022-12-18T07:20:00.488Z,16.67
2022-12-18T07:22:28.379Z,19.80
2022-12-18T07:24:56.306Z,13.63
2022-12-18T07:27:25.476Z,15.70
2022-12-18T07:29:53.233Z,13.20
2022-12-18T07:32:21.098Z,16.05
2022-12-18T07:34:48.880Z,9.20
2022-12-18T07:37:16.696Z,14.68
2022-12-18T07:39:44.423Z,16.92
2022-12-18T07:42:29.390Z,15.68
2022-12-18T07:44:58.555Z,15.82
2022-12-18T07:47:26.656Z,17.20
2022-12-18T07:49:55.023Z,17.38
2022-12-18T07:52:26.112Z,19.88
2022-12-18T07:54:54.268Z,17.10
2022-12-18T07:57:48.971Z,18.85
2022-12-18T08:00:13.246Z,14.60
2022-12-18T08:02:41.283Z,15.35
2022-12-18T08:05:10.807Z,17.70
2022-12-18T08:07:38.624Z,16.70
2022-12-18T08:10:07.454Z,12.88
2022-12-18T08:12:35.220Z,16.17
2022-12-18T08:15:03.059Z,17.58
2022-12-18T08:17:32.632Z,14.80
2022-12-18T08:20:00.493Z,14.90
2022-12-18T08:22:28.365Z,15.75
2022-12-18T08:24:56.165Z,14.88
2022-12-18T08:27:30.947Z,20.52
2022-12-18T08:29:59.099Z,17.13
2022-12-18T08:32:27.764Z,21.42
2022-12-18T08:34:56.951Z,18.77
2022-12-18T08:37:24.861Z,12.70
2022-12-18T08:39:52.732Z,15.25
2022-12-18T08:42:37.993Z,17.30
2022-12-18T08:45:06.439Z,16.52
2022-12-18T08:47:34.195Z,13.50
2022-12-18T08:50:03.325Z,15.00
2022-12-18T08:52:33.468Z,17.45
2022-12-18T08:55:01.306Z,21.48
2022-12-18T08:57:29.086Z,15.80
2022-12-18T08:59:56.797Z,14.32
2022-12-18T09:02:24.683Z,16.27
2022-12-18T09:04:57.146Z,12.23
2022-12-18T09:07:26.875Z,19.33
2022-12-18T09:09:54.609Z,20.33
2022-12-18T09:12:22.325Z,19.13
2022-12-18T09:14:50.512Z,18.67
2022-12-18T09:17:18.359Z,16.38
2022-12-18T09:19:46.185Z,12.75
2022-12-18T09:22:13.932Z,18.00
2022-12-18T09:24:43.153Z,14.48
2022-12-18T09:27:10.865Z,20.95
2022-12-18T09:29:38.647Z,16.85
2022-12-18T09:32:07.052Z,18.17
2022-12-18T09:34:34.999Z,17.98
2022-12-18T09:37:03.122Z,22.02
2022-12-18T09:39:30.964Z,20.33
2022-12-18T09:42:00.835Z,17.75
2022-12-18T09:44:31.901Z,11.68
2022-12-18T09:47:10.461Z,20.35
2022-12-18T09:49:42.716Z,14.43
2022-12-18T09:52:17.680Z,18.60
2022-12-18T09:54:50.825Z,22.25
2022-12-18T09:57:23.734Z,15.13
2022-12-18T09:59:57.052Z,25.35
2022-12-18T10:02:27.247Z,18.27
2022-12-18T10:05:07.013Z,20.13
2022-12-18T10:07:44.979Z,17.05
2022-12-18T10:10:22.265Z,22.33
2022-12-18T10:13:04.329Z,20.77
2022-12-18T10:15:38.381Z,18.90
2022-12-18T10:20:52.757Z,28.48
2022-12-18T10:23:28.839Z,19.38
2022-12-18T10:26:03.396Z,18.90
2022-12-18T10:28:35.259Z,22.23
2022-12-18T10:31:03.168Z,21.65
2022-12-18T10:33:33.190Z,22.67
2022-12-18T10:36:01.877Z,20.77
2022-12-18T10:38:30.861Z,26.35
2022-12-18T10:41:00.974Z,21.95
2022-12-18T10:43:31.375Z,26.98
2022-12-18T10:46:16.808Z,18.50
2022-12-18T10:48:56.245Z,22.50
2022-12-18T10:51:27.017Z,23.88
2022-12-18T10:53:58.834Z,21.80
2022-12-18T10:56:29.164Z,23.77
2022-12-18T10:59:03.068Z,19.23
2022-12-18T11:01:49.138Z,19.90
2022-12-18T11:04:21.593Z,19.75
2022-12-18T11:07:01.649Z,16.42
2022-12-18T11:09:32.527Z,21.08
2022-12-18T11:12:02.949Z,17.08
2022-12-18T11:14:34.680Z,24.58
2022-12-18T11:17:25.441Z,17.77
2022-12-18T11:19:56.137Z,18.23
2022-12-18T11:22:27.457Z,20.38
2022-12-18T11:25:29.985Z,18.85
2022-12-18T11:27:51.564Z,18.38
2022-12-18T11:30:25.020Z,20.77
2022-12-18T11:32:57.809Z,16.45
2022-12-18T11:35:35.299Z,18.25
2022-12-18T11:38:08.757Z,16.38
2022-12-18T11:40:41.229Z,18.00
2022-12-18T11:43:16.306Z,11.95
2022-12-18T11:45:51.640Z,17.63
2022-12-18T11:48:25.636Z,18.10
2022-12-18T11:50:55.332Z,18.30
2022-12-18T11:53:23.657Z,16.77
2022-12-18T11:56:10.337Z,15.57
2022-12-18T11:58:48.712Z,17.73
2022-12-18T12:01:43.891Z,14.32
2022-12-18T12:04:47.145Z,16.85
2022-12-18T12:07:26.180Z,24.70
2022-12-18T12:10:06.098Z,21.10
2022-12-18T12:12:49.538Z,18.33
2022-12-18T12:15:29.691Z,12.15
2022-12-18T12:18:11.275Z,13.73
2022-12-18T12:20:52.500Z,15.27
2022-12-18T12:23:29.463Z,16.65
2022-12-18T12:26:02.130Z,15.85
2022-12-18T12:28:54.377Z,15.30
2022-12-18T12:31:36.229Z,21.02
2022-12-18T12:34:15.172Z,16.20
2022-12-18T12:37:01.753Z,19.38
2022-12-18T12:39:32.597Z,14.68
2022-12-18T12:42:19.041Z,20.38
2022-12-18T12:44:56.396Z,17.08
2022-12-18T12:47:29.826Z,13.00
2022-12-18T12:50:00.304Z,16.27
2022-12-18T12:52:36.898Z,13.60
2022-12-18T12:55:14.616Z,17.48
2022-12-18T12:57:47.928Z,12.60
2022-12-18T13:00:20.221Z,21.23
2022-12-18T13:02:58.848Z,17.55
2022-12-18T13:05:34.017Z,14.13
2022-12-18T13:08:08.012Z,18.77
2022-12-18T13:10:37.880Z,18.13
2022-12-18T13:13:09.261Z,21.67
2022-12-18T13:15:44.208Z,16.42
2022-12-18T13:18:16.932Z,15.07
2022-12-18T13:20:53.099Z,15.18
2022-12-18T13:23:33.069Z,27.80
2022-12-18T13:26:02.056Z,17.42
2022-12-18T13:28:53.886Z,18.77
2022-12-18T13:32:02.998Z,22.20
2022-12-18T13:37:43.941Z,14.32
2022-12-18T13:40:57.463Z,17.48
2022-12-18T13:43:35.120Z,11.05
2022-12-18T13:46:19.044Z,17.48
2022-12-18T13:48:54.211Z,16.60
2022-12-18T13:51:23.637Z,14.18
2022-12-18T13:53:53.960Z,14.82
2022-12-18T13:56:26.072Z,18.80
2022-12-18T13:59:16.571Z,16.50
2022-12-18T14:01:46.471Z,13.88
2022-12-18T14:04:20.578Z,15.95
2022-12-18T14:06:48.970Z,11.10
2022-12-18T14:09:21.710Z,10.88
2022-12-18T14:11:50.626Z,12.77
2022-12-18T14:14:21.584Z,15.98
2022-12-18T14:16:49.579Z,15.38
2022-12-18T14:19:19.906Z,13.50
2022-12-18T14:21:49.022Z,18.33
2022-12-18T14:24:19.699Z,17.85
2022-12-18T14:26:49.616Z,16.55
2022-12-18T14:29:26.158Z,16.73
2022-12-18T14:32:16.582Z,21.40
2022-12-18T14:34:45.291Z,17.15
2022-12-18T14:37:15.046Z,19.23
2022-12-18T14:39:42.905Z,20.25
2022-12-18T14:42:13.404Z,20.45
2022-12-18T14:45:05.207Z,19.92
2022-12-18T14:47:30.350Z,21.98
2022-12-18T14:49:58.141Z,13.07
2022-12-18T14:52:33.888Z,19.60
2022-12-18T14:55:01.757Z,16.00
2022-12-18T14:57:37.333Z,14.45
2022-12-18T15:00:18.247Z,18.42
2022-12-18T15:02:48.104Z,17.73
2022-12-18T15:05:21.469Z,13.65
2022-12-18T15:07:52.690Z,17.42
2022-12-18T15:10:23.096Z,15.18
2022-12-18T15:12:52.924Z,15.68
2022-12-18T15:15:50.673Z,14.07
2022-12-18T15:18:22.164Z,12.57
2022-12-18T15:20:52.527Z,13.88
2022-12-18T15:23:23.667Z,11.10
2022-12-18T15:25:58.118Z,11.18
2022-12-18T15:28:28.576Z,16.00
2022-12-18T15:31:21.250Z,11.50
2022-12-18T15:34:04.136Z,7.22
2022-12-18T15:36:32.415Z,10.07
2022-12-18T15:39:05.168Z,10.90
2022-12-18T15:41:36.507Z,10.68
2022-12-18T15:44:04.697Z,8.07
2022-12-18T15:46:33.908Z,8.48
2022-12-18T15:49:02.906Z,12.32
2022-12-18T15:51:34.551Z,11.88
2022-12-18T15:54:05.183Z,13.68
2022-12-18T15:56:50.476Z,10.85
2022-12-18T15:59:20.382Z,10.10
2022-12-18T16:01:51.415Z,10.38
2022-12-18T16:04:21.584Z,13.70
2022-12-18T16:09:37.144Z,9.13
2022-12-18T16:12:05.926Z,15.40
2022-12-18T16:14:34.244Z,10.15
2022-12-18T16:17:05.596Z,8.63
2022-12-18T16:19:33.421Z,8.88
2022-12-18T16:22:01.192Z,7.38
2022-12-18T16:24:30.818Z,14.80
2022-12-18T16:27:00.180Z,13.95
2022-12-18T16:29:29.463Z,7.90
2022-12-18T16:31:58.115Z,9.80
2022-12-18T16:34:29.612Z,7.82
2022-12-18T16:37:04.918Z,12.43
2022-12-18T16:39:34.913Z,7.00
2022-12-18T16:42:06.006Z,8.93
2022-12-18T16:44:34.410Z,7.25
2022-12-18T16:47:03.067Z,10.15
2022-12-18T16:49:32.434Z,5.60
2022-12-18T16:52:00.216Z,11.40
2022-12-18T16:54:30.406Z,9.48
2022-12-18T16:56:58.562Z,7.32
2022-12-18T16:59:27.373Z,7.32
2022-12-18T17:01:57.366Z,7.47
2022-12-18T17:04:25.352Z,5.65
2022-12-18T17:06:54.565Z,11.82
2022-12-18T17:09:25.069Z,5.88
2022-12-18T17:11:53.803Z,6.18
2022-12-18T17:14:23.453Z,8.52
2022-12-18T17:17:19.260Z,6.55
2022-12-18T17:19:40.981Z,9.80
2022-12-18T17:22:10.144Z,8.00
2022-12-18T17:24:37.994Z,7.50
2022-12-18T17:27:06.013Z,5.28
2022-12-18T17:29:33.888Z,7.07
2022-12-18T17:32:01.704Z,7.00
2022-12-18T17:34:29.970Z,6.60
2022-12-18T17:36:58.402Z,8.32
2022-12-18T17:39:28.721Z,7.25
2022-12-18T17:41:56.769Z,7.70
2022-12-18T17:44:24.560Z,6.78
2022-12-18T17:46:52.349Z,9.15
2022-12-18T17:49:20.239Z,8.73
2022-12-18T17:51:48.065Z,8.32
2022-12-18T17:54:15.965Z,7.80
2022-12-18T17:56:45.728Z,8.50
2022-12-18T17:59:14.381Z,9.30
2022-12-18T18:01:45.089Z,4.78
2022-12-18T18:04:13.612Z,5.97
2022-12-18T18:06:41.480Z,11.82
2022-12-18T18:09:16.023Z,6.88
2022-12-18T18:12:03.973Z,7.25
2022-12-18T18:14:32.234Z,5.35
2022-12-18T18:17:02.842Z,9.25
2022-12-18T18:19:34.497Z,4.75
2022-12-18T18:22:03.066Z,9.18
2022-12-18T18:24:31.755Z,7.55
2022-12-18T18:27:01.077Z,5.75
2022-12-18T18:29:30.325Z,8.15
2022-12-18T18:31:58.415Z,5.47
2022-12-18T18:34:28.528Z,5.78
2022-12-18T18:36:58.724Z,6.82
2022-12-18T18:39:26.732Z,6.93
2022-12-18T18:41:54.714Z,7.47
2022-12-18T18:44:26.053Z,5.40
2022-12-18T18:46:54.970Z,5.25
2022-12-18T18:49:24.144Z,5.55
2022-12-18T18:51:52.030Z,6.20
2022-12-18T18:54:20.788Z,7.45
2022-12-18T18:59:39.835Z,7.32
2022-12-18T19:02:08.368Z,5.78
2022-12-18T19:04:36.601Z,6.72
2022-12-18T19:07:09.548Z,6.43
2022-12-18T19:09:37.521Z,6.00
2022-12-18T19:12:23.252Z,6.00
2022-12-18T19:14:52.378Z,7.95
2022-12-18T19:17:21.772Z,8.48
2022-12-18T19:19:53.080Z,6.60
2022-12-18T19:22:20.998Z,6.05
2022-12-18T19:24:48.764Z,6.43
2022-12-18T19:27:16.580Z,7.88
2022-12-18T19:29:44.300Z,6.38
2022-12-18T19:32:13.411Z,7.63
2022-12-18T19:34:41.948Z,7.28
2022-12-18T19:37:11.042Z,7.43
2022-12-18T19:39:38.960Z,8.18
2022-12-18T19:42:06.837Z,5.47
2022-12-18T19:44:34.611Z,6.53
2022-12-18T19:47:02.423Z,8.25
2022-12-18T19:49:32.674Z,7.32
2022-12-18T19:52:00.481Z,6.78
2022-12-18T19:54:28.320Z,5.35
2022-12-18T19:56:56.024Z,6.28
2022-12-18T19:59:23.963Z,6.15
2022-12-18T20:01:54.163Z,13.65
2022-12-18T20:04:22.310Z,7.93
2022-12-18T20:06:53.208Z,7.00
2022-12-18T20:09:21.628Z,6.80
2022-12-18T20:11:50.589Z,7.05
2022-12-18T20:14:22.655Z,7.07
2022-12-18T20:16:51.390Z,12.83
2022-12-18T20:19:19.572Z,6.22
2022-12-18T20:21:47.402Z,7.78
2022-12-18T20:24:16.660Z,4.85
2022-12-18T20:26:44.911Z,4.28
2022-12-18T20:29:12.743Z,4.25
2022-12-18T20:31:40.541Z,4.75
2022-12-18T20:34:08.520Z,7.07
2022-12-18T20:36:37.684Z,7.13
2022-12-18T20:39:07.675Z,6.65
2022-12-18T20:41:39.222Z,5.00
2022-12-18T20:44:17.742Z,5.75
2022-12-18T20:46:50.456Z,4.80
2022-12-18T20:49:18.277Z,5.38
2022-12-18T20:51:46.866Z,6.60
2022-12-18T20:54:14.707Z,5.13
2022-12-18T20:56:43.788Z,5.45
2022-12-18T20:59:11.798Z,13.60
2022-12-18T21:01:40.104Z,6.72
2022-12-18T21:04:14.119Z,4.43
2022-12-18T21:06:43.840Z,5.93
2022-12-18T21:09:13.743Z,8.32
2022-12-18T21:12:00.429Z,5.88
2022-12-18T21:14:30.757Z,3.38
2022-12-18T21:17:00.827Z,6.60
2022-12-18T21:19:29.918Z,7.85
2022-12-18T21:21:58.601Z,5.97
2022-12-18T21:24:27.036Z,3.42
2022-12-18T21:27:01.830Z,5.05
2022-12-18T21:29:29.824Z,9.73
2022-12-18T21:31:57.705Z,5.07
2022-12-18T21:34:27.908Z,7.63
2022-12-18T21:36:57.219Z,5.43
2022-12-18T21:39:25.528Z,4.55
2022-12-18T21:42:11.279Z,3.90
2022-12-18T21:44:42.036Z,5.55
2022-12-18T21:47:22.429Z,6.30
2022-12-18T21:49:51.591Z,4.72
2022-12-18T21:52:20.000Z,5.55
2022-12-18T21:54:49.544Z,4.32
2022-12-18T21:57:18.672Z,3.95
2022-12-18T21:59:48.816Z,6.05
2022-12-18T22:02:19.241Z,7.90
2022-12-18T22:04:47.331Z,4.85
2022-12-18T22:07:29.234Z,6.60
2022-12-18T22:09:57.056Z,5.95
2022-12-18T22:12:43.677Z,7.30
2022-12-18T22:15:21.441Z,11.43
2022-12-18T22:17:49.873Z,9.02
2022-12-18T22:20:17.919Z,7.30
2022-12-18T22:22:47.947Z,3.58
2022-12-18T22:25:15.919Z,14.10
2022-12-18T22:27:43.684Z,5.28
2022-12-18T22:30:14.408Z,3.55
2022-12-18T22:32:42.181Z,4.15
2022-12-18T22:35:15.561Z,4.28
2022-12-18T22:37:43.751Z,3.63
2022-12-18T22:40:23.978Z,5.13
2022-12-18T22:42:53.741Z,4.97
2022-12-18T22:45:24.635Z,5.43
2022-12-18T22:47:52.692Z,6.90
2022-12-18T22:50:20.837Z,4.25
2022-12-18T22:52:48.575Z,6.65
2022-12-18T22:55:16.425Z,7.00
2022-12-18T22:57:48.855Z,5.35
2022-12-18T23:00:17.635Z,6.95
2022-12-18T23:02:57.516Z,6.20
2022-12-18T23:05:28.240Z,5.80
2022-12-18T23:07:56.160Z,5.03
2022-12-18T23:10:24.005Z,3.78
2022-12-18T23:12:51.740Z,8.27
2022-12-18T23:15:26.022Z,5.03
2022-12-18T23:17:58.858Z,4.07
2022-12-18T23:20:27.399Z,6.88
2022-12-18T23:22:55.205Z,6.47
2022-12-18T23:25:23.037Z,9.25
2022-12-18T23:27:50.873Z,6.00
2022-12-18T23:30:18.921Z,3.33
2022-12-18T23:32:46.713Z,3.20
2022-12-18T23:35:16.215Z,8.65
2022-12-18T23:38:00.199Z,7.65
2022-12-18T23:40:29.285Z,2.95
2022-12-18T23:42:57.053Z,5.07
2022-12-18T23:45:24.881Z,8.45
2022-12-18T23:47:52.603Z,4.72
2022-12-18T23:50:27.713Z,6.55
2022-12-18T23:52:57.704Z,3.97
2022-12-18T23:55:32.673Z,6.47
2022-12-18T23:58:00.452Z,5.53
